Time;durP1;ratioP1;P1;durP2;ratioP2;P2;SDS_P1;SDS_P2;PMS_P1;PMS_P2;Temp;Humidity;BMP_temperature;BMP_pressure;BME280_temperature;BME280_humidity;BME280_pressure;Samples;Min_cycle;Max_cycle;Signal;HPM_P1;HPM_P2
2023/12/12 00:02:20;;;;;;;26.00;9.00;;;8.80;99.90;;;;;;5047846;28;20494;-71
2023/12/12 00:04:46;;;;;;;35.75;9.80;;;8.80;99.90;;;;;;5046935;28;20496;-71
2023/12/12 00:07:12;;;;;;;30.55;9.10;;;8.80;99.90;;;;;;5047383;28;20025;-71
2023/12/12 00:09:37;;;;;;;17.88;7.78;;;8.80;99.90;;;;;;5047392;28;20020;-70
2023/12/12 00:12:03;;;;;;;20.70;8.13;;;8.80;99.90;;;;;;5047504;28;20032;-71
2023/12/12 00:14:29;;;;;;;30.75;10.65;;;8.70;99.90;;;;;;5045551;28;20052;-71
2023/12/12 00:16:55;;;;;;;22.70;8.48;;;8.60;99.90;;;;;;5046948;28;20053;-72
2023/12/12 00:19:20;;;;;;;17.73;8.15;;;8.60;99.90;;;;;;5045374;28;20028;-71
2023/12/12 00:21:46;;;;;;;24.13;9.15;;;8.50;99.90;;;;;;5046978;28;20021;-72
2023/12/12 00:24:11;;;;;;;20.70;8.15;;;8.50;99.90;;;;;;5046991;28;20647;-71
2023/12/12 00:26:37;;;;;;;22.05;7.78;;;8.40;99.90;;;;;;5046531;28;20116;-71
2023/12/12 00:29:03;;;;;;;15.75;7.70;;;8.30;99.90;;;;;;5047094;28;20032;-71
2023/12/12 00:31:28;;;;;;;19.58;7.60;;;8.30;99.90;;;;;;5046917;28;20088;-71
2023/12/12 00:33:54;;;;;;;21.17;7.68;;;8.30;99.90;;;;;;5045497;28;20028;-71
2023/12/12 00:36:20;;;;;;;22.00;8.18;;;8.30;99.90;;;;;;5046316;28;20509;-71
2023/12/12 00:38:45;;;;;;;21.20;7.22;;;8.20;99.90;;;;;;5046538;28;20025;-71
2023/12/12 00:41:11;;;;;;;22.65;7.70;;;8.20;99.90;;;;;;5046559;28;20436;-71
2023/12/12 00:43:41;;;;;;;23.55;6.90;;;8.20;99.90;;;;;;5047001;28;20017;-71
2023/12/12 00:46:06;;;;;;;15.27;7.22;;;8.20;99.90;;;;;;5046511;28;20019;-71
2023/12/12 00:48:32;;;;;;;22.20;7.50;;;8.20;99.90;;;;;;5047069;28;20021;-71
2023/12/12 00:50:58;;;;;;;21.73;7.35;;;8.20;99.90;;;;;;5046168;28;20060;-71
2023/12/12 00:53:23;;;;;;;23.52;7.47;;;8.20;99.90;;;;;;5046778;28;20470;-71
2023/12/12 00:55:49;;;;;;;29.05;7.60;;;8.20;99.90;;;;;;5045561;28;20082;-71
2023/12/12 00:58:14;;;;;;;23.33;7.30;;;8.20;99.90;;;;;;5046480;28;20021;-71
2023/12/12 01:00:40;;;;;;;22.00;6.90;;;8.20;99.90;;;;;;5046103;28;20059;-72
2023/12/12 01:03:06;;;;;;;30.40;8.00;;;8.20;99.90;;;;;;5045289;28;20010;-71
2023/12/12 01:05:31;;;;;;;22.50;8.57;;;8.20;99.90;;;;;;5046261;28;20025;-71
2023/12/12 01:07:57;;;;;;;26.60;7.78;;;8.20;99.90;;;;;;5046314;28;20025;-71
2023/12/12 01:10:23;;;;;;;19.42;7.90;;;8.20;99.90;;;;;;5046132;28;20029;-71
2023/12/12 01:12:49;;;;;;;19.40;7.45;;;8.20;99.90;;;;;;5046361;28;20031;-71
2023/12/12 01:15:14;;;;;;;27.50;8.32;;;8.10;99.90;;;;;;5046042;28;20056;-72
2023/12/12 01:17:40;;;;;;;22.85;8.32;;;8.10;99.90;;;;;;5046003;28;20346;-71
2023/12/12 01:20:07;;;;;;;30.90;7.80;;;8.10;99.90;;;;;;5045889;28;20013;-71
2023/12/12 01:22:34;;;;;;;23.23;8.55;;;8.10;99.90;;;;;;5046261;28;20017;-71
2023/12/12 01:24:59;;;;;;;28.40;9.68;;;8.10;99.90;;;;;;5045803;28;20053;-72
2023/12/12 01:27:25;;;;;;;22.95;8.35;;;8.00;99.90;;;;;;5046716;28;20064;-71
2023/12/12 01:29:50;;;;;;;21.23;8.43;;;8.00;99.90;;;;;;5045395;28;20488;-71
2023/12/12 01:32:16;;;;;;;21.73;7.93;;;8.00;99.90;;;;;;5044708;28;20950;-71
2023/12/12 01:34:42;;;;;;;19.05;8.63;;;8.00;99.90;;;;;;5045595;28;20542;-71
2023/12/12 01:37:07;;;;;;;24.63;9.35;;;8.00;99.90;;;;;;5045823;28;20098;-71
2023/12/12 01:39:33;;;;;;;23.40;9.45;;;7.90;99.90;;;;;;5045679;28;20108;-72
2023/12/12 01:41:58;;;;;;;21.98;9.73;;;7.90;99.90;;;;;;5044779;28;20025;-72
2023/12/12 01:44:24;;;;;;;34.85;10.52;;;7.90;99.90;;;;;;5046129;28;20021;-71
2023/12/12 01:46:51;;;;;;;28.65;10.25;;;7.80;99.90;;;;;;5045870;28;20428;-72
2023/12/12 01:49:17;;;;;;;27.35;10.48;;;7.80;99.90;;;;;;5046020;28;20032;-71
2023/12/12 01:51:45;;;;;;;27.45;9.13;;;7.80;99.90;;;;;;5045912;28;20334;-71
2023/12/12 01:54:12;;;;;;;38.42;13.68;;;7.70;99.90;;;;;;5044750;28;20543;-71
2023/12/12 01:56:38;;;;;;;28.52;10.85;;;7.70;99.90;;;;;;5045681;28;20120;-72
2023/12/12 01:59:05;;;;;;;28.15;12.65;;;7.70;99.90;;;;;;5046363;28;20032;-72
2023/12/12 02:01:31;;;;;;;29.92;11.65;;;7.60;99.90;;;;;;5030080;28;20045;-71
2023/12/12 02:03:58;;;;;;;27.55;12.00;;;7.70;99.90;;;;;;5046402;28;20029;-71
2023/12/12 02:06:24;;;;;;;30.67;14.10;;;7.60;99.90;;;;;;5045983;28;20067;-72
2023/12/12 02:08:51;;;;;;;35.13;13.68;;;7.60;99.90;;;;;;5047766;28;20434;-72
2023/12/12 02:11:17;;;;;;;39.47;14.93;;;7.60;99.90;;;;;;5049169;28;20115;-71
2023/12/12 02:13:44;;;;;;;29.45;12.32;;;7.70;99.90;;;;;;5049717;28;20476;-71
2023/12/12 02:16:10;;;;;;;32.95;12.93;;;7.70;99.90;;;;;;5049576;28;20025;-72
2023/12/12 02:18:36;;;;;;;44.83;15.20;;;7.70;99.90;;;;;;5048030;28;20021;-71
2023/12/12 02:21:02;;;;;;;38.92;15.73;;;7.70;99.90;;;;;;5047701;28;20013;-71
2023/12/12 02:23:28;;;;;;;45.03;16.42;;;7.70;99.90;;;;;;5049563;28;20033;-72
2023/12/12 02:25:55;;;;;;;42.60;16.77;;;7.70;99.90;;;;;;5048903;28;20579;-72
2023/12/12 02:28:21;;;;;;;35.67;15.43;;;7.60;99.90;;;;;;5049413;28;20074;-71
2023/12/12 02:30:46;;;;;;;41.10;16.90;;;7.60;99.90;;;;;;5048589;28;20407;-72
2023/12/12 02:33:12;;;;;;;32.92;15.45;;;7.60;99.90;;;;;;5049296;28;20482;-72
2023/12/12 02:35:38;;;;;;;41.70;16.42;;;7.50;99.90;;;;;;5048463;28;20126;-71
2023/12/12 02:38:04;;;;;;;40.15;15.48;;;7.50;99.90;;;;;;5049068;28;20029;-72
2023/12/12 02:40:30;;;;;;;34.17;16.15;;;7.50;99.90;;;;;;5048759;28;20494;-71
2023/12/12 02:42:55;;;;;;;26.95;13.95;;;7.40;99.90;;;;;;5048951;28;20025;-72
2023/12/12 02:45:21;;;;;;;22.90;12.13;;;7.40;99.90;;;;;;5047043;28;20032;-71
2023/12/12 02:47:47;;;;;;;33.67;14.48;;;7.40;99.90;;;;;;5048917;28;20189;-72
2023/12/12 02:50:12;;;;;;;36.58;15.15;;;7.30;99.90;;;;;;5048629;28;20025;-72
2023/12/12 02:52:38;;;;;;;49.13;17.92;;;7.20;99.90;;;;;;5048598;28;20025;-71
2023/12/12 02:55:04;;;;;;;41.47;15.90;;;7.20;99.90;;;;;;5048844;28;20470;-72
2023/12/12 02:57:29;;;;;;;54.10;19.35;;;7.20;99.90;;;;;;5048534;28;20099;-72
2023/12/12 02:59:55;;;;;;;41.95;18.38;;;7.20;99.90;;;;;;5046982;28;20020;-72
2023/12/12 03:02:21;;;;;;;39.70;16.40;;;7.20;99.90;;;;;;5048504;28;20025;-72
2023/12/12 03:04:46;;;;;;;50.70;17.75;;;7.10;99.90;;;;;;5046828;28;20025;-71
2023/12/12 03:07:12;;;;;;;51.63;17.98;;;7.10;99.90;;;;;;5049969;28;20021;-72
2023/12/12 03:09:38;;;;;;;29.42;12.65;;;7.10;99.90;;;;;;5049162;28;20081;-71
2023/12/12 03:12:04;;;;;;;40.47;16.73;;;7.10;99.90;;;;;;5048216;28;20112;-72
2023/12/12 03:14:30;;;;;;;48.10;18.33;;;7.00;99.90;;;;;;5048195;28;20524;-72
2023/12/12 03:16:57;;;;;;;36.25;15.10;;;7.10;99.90;;;;;;5047999;28;20589;-72
2023/12/12 03:19:23;;;;;;;26.10;12.77;;;7.00;99.90;;;;;;5047889;28;20032;-71
2023/12/12 03:21:49;;;;;;;55.90;19.02;;;7.00;99.90;;;;;;5041336;28;20146;-72
2023/12/12 03:24:16;;;;;;;41.50;17.58;;;7.00;99.90;;;;;;5039850;28;20021;-72
2023/12/12 03:26:41;;;;;;;42.15;17.17;;;6.90;99.90;;;;;;5047731;28;20037;-71
2023/12/12 03:29:07;;;;;;;36.47;16.67;;;6.90;99.90;;;;;;5048342;28;20102;-71
2023/12/12 03:31:32;;;;;;;46.15;17.90;;;6.90;99.90;;;;;;5047952;28;20053;-71
2023/12/12 03:33:58;;;;;;;43.30;17.38;;;6.90;99.90;;;;;;5047967;28;20398;-71
2023/12/12 03:36:24;;;;;;;31.05;14.88;;;6.90;99.90;;;;;;5047679;28;20056;-71
2023/12/12 03:38:49;;;;;;;42.90;17.30;;;6.90;99.90;;;;;;5048073;28;20028;-71
2023/12/12 03:41:16;;;;;;;44.50;17.02;;;6.80;99.90;;;;;;5047581;28;20136;-71
2023/12/12 03:43:41;;;;;;;43.17;17.42;;;6.80;99.90;;;;;;5047852;28;20553;-72
2023/12/12 03:46:13;;;;;;;38.10;15.95;;;6.80;99.90;;;;;;5047809;28;20036;-72
2023/12/12 03:48:39;;;;;;;39.13;16.90;;;6.70;99.90;;;;;;5047842;28;20036;-72
2023/12/12 03:51:08;;;;;;;40.30;17.52;;;6.70;99.90;;;;;;5047147;28;20135;-72
2023/12/12 03:53:33;;;;;;;41.80;17.08;;;6.70;99.90;;;;;;5047953;28;20032;-72
2023/12/12 03:55:59;;;;;;;36.72;16.92;;;6.70;99.90;;;;;;5047288;28;20033;-72
2023/12/12 03:58:25;;;;;;;41.35;17.00;;;6.60;99.90;;;;;;5048025;28;20493;-72
2023/12/12 04:00:50;;;;;;;45.55;18.05;;;6.60;99.90;;;;;;5047382;28;20020;-72
2023/12/12 04:03:16;;;;;;;35.72;16.27;;;6.60;99.90;;;;;;5047946;28;20028;-72
2023/12/12 04:05:42;;;;;;;40.92;17.23;;;6.50;99.90;;;;;;5047107;28;20106;-72
2023/12/12 04:08:08;;;;;;;41.75;16.35;;;6.50;99.90;;;;;;5047775;28;20477;-71
2023/12/12 04:10:34;;;;;;;43.88;18.70;;;6.50;99.90;;;;;;5047081;28;20033;-71
2023/12/12 04:12:59;;;;;;;40.20;17.00;;;6.40;99.90;;;;;;5048153;28;20029;-71
2023/12/12 04:15:25;;;;;;;44.30;17.48;;;6.40;99.90;;;;;;5048571;28;20032;-72
2023/12/12 04:17:51;;;;;;;32.88;14.82;;;6.40;99.90;;;;;;5047857;28;20471;-71
2023/12/12 04:20:17;;;;;;;40.03;17.42;;;6.40;99.90;;;;;;5047347;28;20031;-71
2023/12/12 04:22:42;;;;;;;55.25;19.10;;;6.40;99.90;;;;;;5047346;28;20033;-70
2023/12/12 04:25:10;;;;;;;44.47;18.15;;;6.40;99.90;;;;;;5047114;28;20028;-71
2023/12/12 04:27:36;;;;;;;39.22;16.52;;;6.40;99.90;;;;;;5046935;28;20499;-71
2023/12/12 04:30:04;;;;;;;37.60;14.25;;;6.40;99.90;;;;;;5045606;28;20025;-71
2023/12/12 04:32:30;;;;;;;37.13;16.05;;;6.50;99.90;;;;;;5045773;28;20118;-71
2023/12/12 04:34:57;;;;;;;36.63;16.05;;;6.50;99.90;;;;;;5045315;28;20017;-71
2023/12/12 04:37:23;;;;;;;31.00;14.52;;;6.50;99.90;;;;;;5046329;28;20675;-71
2023/12/12 04:39:48;;;;;;;29.48;13.05;;;6.60;99.90;;;;;;5046674;28;20025;-70
2023/12/12 04:42:15;;;;;;;31.08;13.50;;;6.60;99.90;;;;;;5046691;28;20036;-70
2023/12/12 04:44:41;;;;;;;37.47;14.40;;;6.60;99.90;;;;;;5045422;28;20512;-71
2023/12/12 04:47:07;;;;;;;40.25;14.30;;;6.60;99.90;;;;;;5046386;28;20021;-71
2023/12/12 04:49:33;;;;;;;30.13;11.70;;;6.60;99.90;;;;;;5046678;28;20203;-71
2023/12/12 04:51:59;;;;;;;38.80;13.88;;;6.70;99.90;;;;;;5046407;28;20048;-71
2023/12/12 04:54:25;;;;;;;29.33;12.27;;;6.70;99.90;;;;;;5045429;28;20536;-70
2023/12/12 04:56:50;;;;;;;44.72;15.10;;;6.70;99.90;;;;;;5046456;28;20029;-71
2023/12/12 04:59:16;;;;;;;43.13;16.23;;;6.80;99.90;;;;;;5046783;28;20025;-71
2023/12/12 05:01:42;;;;;;;36.33;14.70;;;6.80;99.90;;;;;;5046167;28;20563;-70
2023/12/12 05:04:08;;;;;;;43.20;16.50;;;6.80;99.90;;;;;;5045375;28;20033;-70
2023/12/12 05:06:34;;;;;;;52.35;17.73;;;6.80;99.90;;;;;;5046145;28;20029;-70
2023/12/12 05:09:00;;;;;;;43.83;15.70;;;6.80;99.90;;;;;;5047140;28;20112;-70
2023/12/12 05:11:25;;;;;;;35.35;14.48;;;6.80;99.90;;;;;;5046337;28;20515;-70
2023/12/12 05:13:51;;;;;;;37.15;13.55;;;6.80;99.90;;;;;;5046378;28;20145;-70
2023/12/12 05:16:17;;;;;;;40.85;14.20;;;6.80;99.90;;;;;;5046088;28;20025;-71
2023/12/12 05:18:42;;;;;;;44.25;15.15;;;6.80;99.90;;;;;;5044979;28;20383;-70
2023/12/12 05:21:08;;;;;;;42.13;14.65;;;6.80;99.90;;;;;;5046128;28;20028;-70
2023/12/12 05:23:34;;;;;;;43.83;14.82;;;6.80;99.90;;;;;;5046401;28;20014;-70
2023/12/12 05:26:00;;;;;;;48.30;15.73;;;6.70;99.90;;;;;;5044419;28;20025;-70
2023/12/12 05:28:26;;;;;;;41.90;15.77;;;6.70;99.90;;;;;;5046583;28;20104;-70
2023/12/12 05:30:51;;;;;;;33.20;14.45;;;6.70;99.90;;;;;;5046294;28;20108;-70
2023/12/12 05:33:17;;;;;;;44.38;15.60;;;6.70;99.90;;;;;;5046434;28;20033;-70
2023/12/12 05:35:42;;;;;;;37.38;14.52;;;6.60;99.90;;;;;;5045781;28;20056;-70
2023/12/12 05:38:08;;;;;;;35.13;14.80;;;6.60;99.90;;;;;;5044794;28;20120;-70
2023/12/12 05:40:34;;;;;;;40.10;14.75;;;6.60;99.90;;;;;;5046045;28;20138;-71
2023/12/12 05:42:59;;;;;;;38.17;14.80;;;6.60;99.90;;;;;;5048203;28;20127;-70
2023/12/12 05:45:25;;;;;;;43.50;15.40;;;6.50;99.90;;;;;;5049829;28;20401;-70
2023/12/12 05:47:51;;;;;;;37.30;13.52;;;6.50;99.90;;;;;;5049937;28;20017;-71
2023/12/12 05:50:16;;;;;;;40.72;14.73;;;6.50;99.90;;;;;;5049896;28;20029;-71
2023/12/12 05:52:42;;;;;;;34.83;12.05;;;6.40;99.90;;;;;;5049915;28;20025;-70
2023/12/12 05:55:08;;;;;;;41.15;14.85;;;6.40;99.90;;;;;;5049809;28;20037;-70
2023/12/12 05:57:34;;;;;;;37.55;15.02;;;6.40;99.90;;;;;;5049489;28;20060;-70
2023/12/12 06:00:01;;;;;;;49.60;15.88;;;6.40;99.90;;;;;;5050196;28;20049;-70
2023/12/12 06:02:26;;;;;;;38.35;15.75;;;6.40;99.90;;;;;;5049428;28;20569;-70
2023/12/12 06:04:52;;;;;;;33.78;11.82;;;6.30;99.90;;;;;;5047921;28;20025;-70
2023/12/12 06:07:18;;;;;;;36.45;13.98;;;6.30;99.90;;;;;;5049396;28;20456;-70
2023/12/12 06:09:44;;;;;;;52.17;15.60;;;6.30;99.90;;;;;;5049925;28;20021;-71
2023/12/12 06:12:10;;;;;;;43.15;15.05;;;6.30;99.90;;;;;;5048088;28;20048;-71
2023/12/12 06:14:35;;;;;;;41.10;15.68;;;6.20;99.90;;;;;;5047711;28;20098;-70
2023/12/12 06:17:02;;;;;;;25.27;12.13;;;6.30;99.90;;;;;;5049456;28;20024;-69
2023/12/12 06:19:28;;;;;;;34.38;14.43;;;6.20;99.90;;;;;;5048041;28;20033;-70
2023/12/12 06:21:54;;;;;;;30.48;13.73;;;6.20;99.90;;;;;;5047799;28;20100;-70
2023/12/12 06:24:20;;;;;;;38.25;14.27;;;6.30;99.90;;;;;;5048204;28;20111;-70
2023/12/12 06:26:46;;;;;;;39.75;15.02;;;6.30;99.90;;;;;;5049168;28;20009;-70
2023/12/12 06:29:13;;;;;;;43.42;15.30;;;6.20;99.90;;;;;;5049471;28;20482;-70
2023/12/12 06:31:39;;;;;;;50.13;17.38;;;6.30;99.90;;;;;;5048830;28;20029;-70
2023/12/12 06:34:05;;;;;;;47.30;15.40;;;6.30;99.90;;;;;;5049365;28;20104;-70
2023/12/12 06:36:31;;;;;;;45.90;16.95;;;6.30;99.90;;;;;;5048491;28;20728;-70
2023/12/12 06:38:57;;;;;;;42.85;16.27;;;6.40;99.90;;;;;;5049106;28;20028;-70
2023/12/12 06:41:22;;;;;;;30.05;12.13;;;6.40;99.90;;;;;;5048905;28;20478;-70
2023/12/12 06:43:48;;;;;;;44.13;15.00;;;6.40;99.90;;;;;;5049110;28;20100;-70
2023/12/12 06:46:20;;;;;;;47.47;15.13;;;6.40;99.90;;;;;;5048513;28;20057;-70
2023/12/12 06:48:45;;;;;;;51.55;15.05;;;6.50;99.90;;;;;;5049118;28;20040;-70
2023/12/12 06:51:11;;;;;;;50.05;13.73;;;6.50;99.90;;;;;;5048560;28;20017;-71
2023/12/12 06:53:37;;;;;;;59.97;15.77;;;6.50;99.90;;;;;;5048421;28;20120;-70
2023/12/12 06:56:03;;;;;;;64.00;14.50;;;6.50;99.90;;;;;;5048057;28;20021;-70
2023/12/12 06:58:29;;;;;;;42.17;13.20;;;6.50;99.90;;;;;;5047271;28;20102;-70
2023/12/12 07:00:55;;;;;;;48.45;14.20;;;6.60;99.90;;;;;;5048483;28;20025;-70
2023/12/12 07:03:24;;;;;;;59.85;16.02;;;6.60;99.90;;;;;;5047055;28;20021;-70
2023/12/12 07:05:52;;;;;;;69.15;16.40;;;6.70;99.90;;;;;;5047077;28;20028;-70
2023/12/12 07:08:19;;;;;;;51.55;14.15;;;6.70;99.90;;;;;;5047065;28;20447;-70
2023/12/12 07:10:48;;;;;;;59.75;15.65;;;6.70;99.90;;;;;;5043382;28;20036;-70
2023/12/12 07:13:14;;;;;;;53.88;14.70;;;6.80;99.90;;;;;;5047135;28;20144;-70
2023/12/12 07:15:40;;;;;;;76.30;15.05;;;6.80;99.90;;;;;;5048368;28;20111;-71
2023/12/12 07:18:11;;;;;;;76.60;16.75;;;6.80;99.90;;;;;;5045961;28;20029;-70
2023/12/12 07:20:41;;;;;;;75.95;15.73;;;6.80;99.90;;;;;;5048364;28;20021;-70
2023/12/12 07:23:07;;;;;;;83.90;16.63;;;6.80;99.90;;;;;;5042183;28;20360;-70
2023/12/12 07:25:34;;;;;;;81.93;16.88;;;6.90;99.90;;;;;;5043664;28;20021;-70
2023/12/12 07:28:00;;;;;;;86.45;17.25;;;6.90;99.90;;;;;;5044247;28;20474;-70
2023/12/12 07:30:27;;;;;;;63.65;16.25;;;6.90;99.90;;;;;;5047644;28;20036;-71
2023/12/12 07:32:56;;;;;;;79.60;18.33;;;7.00;99.90;;;;;;5047549;28;20482;-70
2023/12/12 07:35:23;;;;;;;92.55;18.02;;;7.00;99.90;;;;;;5047994;28;20025;-71
2023/12/12 07:37:49;;;;;;;91.07;17.45;;;7.00;99.90;;;;;;5047520;28;20609;-70
2023/12/12 07:40:15;;;;;;;80.97;16.50;;;7.10;99.90;;;;;;5047755;28;20055;-71
2023/12/12 07:42:41;;;;;;;65.97;15.77;;;7.10;99.90;;;;;;5039538;28;20021;-71
2023/12/12 07:45:07;;;;;;;83.63;18.15;;;7.10;99.90;;;;;;5046219;28;20033;-70
2023/12/12 07:47:33;;;;;;;82.25;18.15;;;7.20;99.90;;;;;;5039518;28;20025;-70
2023/12/12 07:49:59;;;;;;;88.43;18.38;;;7.20;99.90;;;;;;5047769;28;20106;-71
2023/12/12 07:52:25;;;;;;;99.20;18.92;;;7.20;99.90;;;;;;5043428;28;20064;-70
2023/12/12 07:54:51;;;;;;;93.57;19.15;;;7.20;99.90;;;;;;5046348;28;20509;-71
2023/12/12 07:57:17;;;;;;;82.78;18.60;;;7.30;99.90;;;;;;5046013;28;20021;-70
2023/12/12 07:59:43;;;;;;;84.60;16.95;;;7.30;99.90;;;;;;5047513;28;20509;-70
2023/12/12 08:02:09;;;;;;;74.63;16.42;;;7.30;99.90;;;;;;5043976;28;20036;-71
2023/12/12 08:04:35;;;;;;;70.65;16.63;;;7.40;99.90;;;;;;5040872;28;20021;-70
2023/12/12 08:07:01;;;;;;;86.32;18.33;;;7.40;99.90;;;;;;5042815;28;20124;-70
2023/12/12 08:09:29;;;;;;;68.25;16.05;;;7.40;99.90;;;;;;5045163;28;20029;-71
2023/12/12 08:11:55;;;;;;;67.82;17.02;;;7.40;99.90;;;;;;5039242;28;20122;-71
2023/12/12 08:14:21;;;;;;;88.15;17.17;;;7.50;99.90;;;;;;5044638;28;20037;-70
2023/12/12 08:16:47;;;;;;;56.45;14.35;;;7.50;99.90;;;;;;5043046;28;20108;-70
2023/12/12 08:19:13;;;;;;;81.38;17.63;;;7.50;99.90;;;;;;5045412;28;20515;-71
2023/12/12 08:21:39;;;;;;;79.72;17.23;;;7.60;99.90;;;;;;5041701;28;20746;-70
2023/12/12 08:24:05;;;;;;;68.72;15.25;;;7.60;99.90;;;;;;5042658;28;20058;-70
2023/12/12 08:26:46;;;;;;;74.57;16.35;;;7.70;99.90;;;;;;5046569;28;20029;-69
2023/12/12 08:29:14;;;;;;;81.90;17.13;;;7.70;99.90;;;;;;5039157;28;20037;-71
2023/12/12 08:31:40;;;;;;;63.28;15.30;;;7.70;99.90;;;;;;5030577;28;20035;-71
2023/12/12 08:34:06;;;;;;;89.63;15.55;;;7.80;99.90;;;;;;5041871;28;20017;-71
2023/12/12 08:36:32;;;;;;;76.38;15.32;;;7.80;99.90;;;;;;5045435;28;20061;-70
2023/12/12 08:38:59;;;;;;;63.10;13.43;;;7.80;99.90;;;;;;5043218;28;20654;-70
2023/12/12 08:41:30;;;;;;;66.35;13.80;;;7.80;99.90;;;;;;5046622;28;20028;-71
2023/12/12 08:43:57;;;;;;;73.28;16.17;;;7.80;99.90;;;;;;5045964;28;20016;-71
2023/12/12 08:46:26;;;;;;;75.28;15.55;;;7.80;99.90;;;;;;5042289;28;20044;-71
2023/12/12 08:48:56;;;;;;;83.15;15.65;;;7.80;99.90;;;;;;5038942;28;20630;-70
2023/12/12 08:51:23;;;;;;;56.03;13.27;;;7.90;99.90;;;;;;5042661;28;20112;-70
2023/12/12 08:53:58;;;;;;;64.57;14.45;;;7.90;99.90;;;;;;5032435;28;20735;-70
2023/12/12 08:56:25;;;;;;;61.55;13.75;;;8.00;99.90;;;;;;5044998;28;20032;-71
2023/12/12 08:58:51;;;;;;;54.70;13.77;;;8.00;99.90;;;;;;5043597;28;20036;-71
2023/12/12 09:01:17;;;;;;;73.03;14.10;;;8.00;99.90;;;;;;5044104;28;20090;-70
2023/12/12 09:03:43;;;;;;;52.05;12.25;;;8.00;99.90;;;;;;5039168;28;20554;-70
2023/12/12 09:06:08;;;;;;;57.97;11.20;;;8.00;99.90;;;;;;5040594;28;20363;-70
2023/12/12 09:08:34;;;;;;;60.15;13.75;;;8.00;99.90;;;;;;5047736;28;20036;-71
2023/12/12 09:11:00;;;;;;;70.47;14.05;;;8.00;99.90;;;;;;5047357;28;20483;-70
2023/12/12 09:13:26;;;;;;;64.43;11.05;;;8.10;99.90;;;;;;5046507;28;20490;-71
2023/12/12 09:15:52;;;;;;;64.57;12.50;;;8.10;99.90;;;;;;5045617;28;20021;-70
2023/12/12 09:18:17;;;;;;;63.15;12.07;;;8.20;99.90;;;;;;5049094;28;20490;-71
2023/12/12 09:20:43;;;;;;;64.22;12.32;;;8.20;99.90;;;;;;5051037;28;20060;-71
2023/12/12 09:23:09;;;;;;;54.40;11.70;;;8.20;99.90;;;;;;5038892;28;20052;-70
2023/12/12 09:25:34;;;;;;;47.95;11.02;;;8.20;99.90;;;;;;5051264;28;20033;-71
2023/12/12 09:28:00;;;;;;;66.10;12.52;;;8.30;99.90;;;;;;5050809;28;20074;-70
2023/12/12 09:30:26;;;;;;;69.57;12.88;;;8.30;99.90;;;;;;5051395;28;20033;-71
2023/12/12 09:32:52;;;;;;;48.30;12.48;;;8.30;99.90;;;;;;5050953;28;20555;-71
2023/12/12 09:35:18;;;;;;;75.05;13.70;;;8.30;99.90;;;;;;5051404;28;20037;-71
2023/12/12 09:37:43;;;;;;;57.55;12.18;;;8.30;99.90;;;;;;5050916;28;20655;-70
2023/12/12 09:40:09;;;;;;;54.65;12.20;;;8.30;99.90;;;;;;5051629;28;20497;-71
2023/12/12 09:42:35;;;;;;;53.90;12.68;;;8.30;99.90;;;;;;5050690;28;20102;-71
2023/12/12 09:45:07;;;;;;;72.60;12.85;;;8.40;99.90;;;;;;5051143;28;20036;-71
2023/12/12 09:47:34;;;;;;;64.40;14.43;;;8.40;99.90;;;;;;5050470;28;20021;-70
2023/12/12 09:50:01;;;;;;;66.70;14.77;;;8.40;99.90;;;;;;5050848;28;20024;-71
2023/12/12 09:52:29;;;;;;;72.03;15.45;;;8.40;99.90;;;;;;5050721;28;20743;-71
2023/12/12 09:54:58;;;;;;;55.30;13.90;;;8.50;99.90;;;;;;5044764;28;20026;-71
2023/12/12 09:57:26;;;;;;;60.67;14.25;;;8.50;99.90;;;;;;5044125;28;20040;-71
2023/12/12 09:59:52;;;;;;;63.95;13.77;;;8.60;99.90;;;;;;5049932;28;20074;-71
2023/12/12 10:02:23;;;;;;;59.22;14.45;;;8.60;99.90;;;;;;5049485;28;20502;-71
2023/12/12 10:04:49;;;;;;;;;;;8.70;99.90;;;;;;5050684;28;20056;-71
2023/12/12 10:07:18;;;;;;;44.15;11.02;;;8.70;99.90;;;;;;5049703;28;19904;-71
2023/12/12 10:09:43;;;;;;;50.28;11.30;;;8.70;99.90;;;;;;5050167;28;20108;-71
2023/12/12 10:12:09;;;;;;;58.85;13.07;;;8.80;99.90;;;;;;5049259;28;20108;-70
2023/12/12 10:14:44;;;;;;;53.58;10.52;;;8.80;99.90;;;;;;5048968;28;20372;-71
2023/12/12 10:17:11;;;;;;;51.38;11.18;;;8.80;99.90;;;;;;5047997;28;20032;-71
2023/12/12 10:19:40;;;;;;;67.53;11.63;;;8.90;99.90;;;;;;5049702;28;20025;-71
2023/12/12 10:22:08;;;;;;;54.22;11.27;;;8.90;99.90;;;;;;5048361;28;20026;-71
2023/12/12 10:24:35;;;;;;;43.95;11.43;;;8.90;99.90;;;;;;5049194;28;20031;-71
2023/12/12 10:27:04;;;;;;;40.05;9.75;;;9.00;99.90;;;;;;5049686;28;20021;-71
2023/12/12 10:29:32;;;;;;;49.05;11.00;;;9.00;99.90;;;;;;5054674;28;20031;-71
2023/12/12 10:31:59;;;;;;;56.67;10.50;;;9.10;99.90;;;;;;5049097;28;20132;-70
2023/12/12 10:34:27;;;;;;;47.33;9.65;;;9.20;99.90;;;;;;5040348;28;20035;-70
2023/12/12 10:36:53;;;;;;;41.50;9.82;;;9.20;99.90;;;;;;5046025;28;20045;-71
2023/12/12 10:39:19;;;;;;;44.17;9.07;;;9.30;99.90;;;;;;5048361;28;20470;-71
2023/12/12 10:41:56;;;;;;;45.28;9.10;;;9.40;99.90;;;;;;5043502;28;20028;-70
2023/12/12 10:44:31;;;;;;;37.10;8.73;;;9.50;99.90;;;;;;5049208;28;20462;-70
2023/12/12 10:47:00;;;;;;;41.47;7.43;;;9.50;99.90;;;;;;5047738;28;20025;-71
2023/12/12 10:49:33;;;;;;;37.42;8.02;;;9.50;99.90;;;;;;5043318;28;20033;-70
2023/12/12 10:52:05;;;;;;;28.65;7.85;;;9.50;99.90;;;;;;5039991;28;20028;-71
2023/12/12 10:54:35;;;;;;;31.88;6.75;;;9.50;99.90;;;;;;5048864;28;20151;-69
2023/12/12 10:57:05;;;;;;;41.78;7.97;;;9.50;99.90;;;;;;5047302;28;20490;-71
2023/12/12 10:59:32;;;;;;;30.20;7.68;;;9.60;99.90;;;;;;5040726;28;20029;-71
2023/12/12 11:01:59;;;;;;;37.88;8.27;;;9.60;99.90;;;;;;5040111;28;20025;-70
2023/12/12 11:04:25;;;;;;;30.63;7.43;;;9.70;99.90;;;;;;5037165;28;20060;-71
2023/12/12 11:06:51;;;;;;;36.15;7.82;;;9.80;99.90;;;;;;5041407;28;20013;-71
2023/12/12 11:09:20;;;;;;;42.67;7.95;;;9.90;99.90;;;;;;5044624;28;20039;-70
2023/12/12 11:11:51;;;;;;;33.00;7.40;;;10.00;99.90;;;;;;5039748;28;20635;-71
2023/12/12 11:14:22;;;;;;;35.00;6.65;;;10.00;99.90;;;;;;5048433;28;20060;-71
2023/12/12 11:16:48;;;;;;;29.48;6.53;;;10.10;99.90;;;;;;5048153;28;20020;-70
2023/12/12 11:19:18;;;;;;;33.65;6.47;;;10.20;99.90;;;;;;5048848;28;20619;-71
2023/12/12 11:21:44;;;;;;;34.67;7.38;;;10.20;99.90;;;;;;5043176;28;20033;-71
2023/12/12 11:24:10;;;;;;;38.28;7.22;;;10.30;99.90;;;;;;5048234;28;20049;-70
2023/12/12 11:26:37;;;;;;;36.47;7.18;;;10.30;99.90;;;;;;5046642;28;20102;-70
2023/12/12 11:29:06;;;;;;;31.05;6.65;;;10.40;99.90;;;;;;5047935;28;20039;-70
2023/12/12 11:31:36;;;;;;;28.75;6.40;;;10.50;99.90;;;;;;5047389;28;20617;-69
2023/12/12 11:34:08;;;;;;;28.73;6.72;;;10.60;99.90;;;;;;5046356;28;20111;-70
2023/12/12 11:36:57;;;;;;;24.63;6.40;;;10.80;99.90;;;;;;5038148;28;20061;-70
2023/12/12 11:39:30;;;;;;;31.20;6.65;;;11.10;99.90;;;;;;5047632;28;20025;-70
2023/12/12 11:41:58;;;;;;;26.33;5.55;;;11.10;99.90;;;;;;5045477;28;20032;-70
2023/12/12 11:44:24;;;;;;;22.63;5.53;;;11.00;99.90;;;;;;5047898;28;20068;-70
2023/12/12 11:46:54;;;;;;;27.33;6.07;;;11.00;99.90;;;;;;5047410;28;20483;-71
2023/12/12 11:49:21;;;;;;;29.70;6.20;;;11.00;99.90;;;;;;5045003;28;20044;-70
2023/12/12 11:51:49;;;;;;;20.23;5.65;;;10.90;99.90;;;;;;5046867;28;20025;-71
2023/12/12 11:54:22;;;;;;;21.30;5.40;;;10.90;99.90;;;;;;5047157;28;20074;-71
2023/12/12 11:56:59;;;;;;;27.02;6.28;;;10.90;99.90;;;;;;5046973;28;20573;-71
2023/12/12 11:59:26;;;;;;;24.88;5.35;;;10.90;99.90;;;;;;5044806;28;20033;-71
2023/12/12 12:01:55;;;;;;;25.30;5.47;;;10.80;99.90;;;;;;5035407;28;20029;-71
2023/12/12 12:04:21;;;;;;;30.80;6.35;;;10.80;99.90;;;;;;5044178;28;20032;-70
2023/12/12 12:06:49;;;;;;;33.20;5.90;;;10.80;99.90;;;;;;5045953;28;20090;-70
2023/12/12 12:09:16;;;;;;;25.60;5.53;;;10.80;99.90;;;;;;5046362;28;20017;-70
2023/12/12 12:11:47;;;;;;;24.67;5.70;;;10.80;99.90;;;;;;5034244;28;20112;-71
2023/12/12 12:14:14;;;;;;;23.80;5.38;;;10.90;99.90;;;;;;5045423;28;20033;-71
2023/12/12 12:16:40;;;;;;;24.38;5.32;;;10.90;99.90;;;;;;5043046;28;20108;-70
2023/12/12 12:19:45;;;;;;;25.15;4.93;;;10.90;99.90;;;;;;5042879;28;20025;-71
2023/12/12 12:22:12;;;;;;;20.10;4.88;;;11.10;99.90;;;;;;5063978;28;20063;-71
2023/12/12 12:24:47;;;;;;;19.70;5.28;;;11.30;99.90;;;;;;5055123;28;20033;-71
2023/12/12 12:27:14;;;;;;;22.77;5.65;;;11.50;99.90;;;;;;5050393;28;20057;-71
2023/12/12 12:29:56;;;;;;;23.30;5.55;;;11.60;99.90;;;;;;5043558;28;20550;-71
2023/12/12 12:32:22;;;;;;;21.30;4.57;;;11.60;99.90;;;;;;5043495;28;20078;-70
2023/12/12 12:34:48;;;;;;;17.45;4.15;;;11.60;99.90;;;;;;5046982;28;20033;-71
2023/12/12 12:37:33;;;;;;;16.85;4.20;;;11.60;99.90;;;;;;5046581;28;20045;-70